Alexandria, SD

3:23 PM CST on February 13, 2016 (GMT -0600)
Mitchell Municipal | | Change Station
CLOSE
Current Station
Airport
Location: Mitchell,
Elevation: 1302 ft
Nearby Weather Stations
Active Advisory: Winter Weather Advisory

Elev 1302 ft 43.77 °N, 98.04 °W | Updated 30 minutes ago

Overcast
Overcast
13 °F
Feels Like -6 °F
N
24
Wind Variable Wind from SE
Gusts 33 mph

Today
High -- | Low -- °F
--% Chance of Precip.
Yesterday
High -- | Low -- °F
Precip. -- in
Pressure 30.32 in
Visibility 10.0 miles
Clouds Overcast 3900 ft
Windchill -6 °F
Dew Point 5 °F
Humidity 71%
Rainfall 0.00 in
Snow Depth Not available.
7:33 AM 5:58 PM
Waxing Crescent, 34% visible
METAR KMHE 132053Z AUTO 14021G29KT 10SM OVC039 M11/M15 A3023 RMK AO2 PK WND 14029/2050 SLP265 T11061150 56042
Pressure 30.32 in
Visibility 10.0 miles
Clouds Overcast 3900 ft
Windchill -6 °F
Dew Point 5 °F
Humidity 71%
Rainfall 0.00 in
Snow Depth Not available.
7:33 AM 5:58 PM
Waxing Crescent, 34% visible
METAR KMHE 132053Z AUTO 14021G29KT 10SM OVC039 M11/M15 A3023 RMK AO2 PK WND 14029/2050 SLP265 T11061150 56042

10-Day Weather Forecast

Almanac

Astronomy

Feb. 13, 2016 Rise Set
Actual Time
Civil Twilight
Nautical Twilight
Astronomical Twilight
Moon
Length of Visible Light
Length of Day
Tomorrow will be .
, % of the Moon is Illuminated

Today's Extremes

State Highs State Lows

Community

WunderPhotos

Upload Photos

1,892,670 photos uploaded!

WunderBlog® & News

Nearby

Air Quality

  Air Quality AQ Index Pollutant
Not available.

Snow Depth

Station Depth Elevation

Earthquake Activity

City Distance Mag. Time & Date
Minimum magnitude displayed is 2.5.

Coastal Water Temperatures

Place Temperature

Stations

Nearby Weather Stations

Station Location Temp. Windchill Dew Point Humidity Wind Precip. Elev Updated Type
                   

Watches & Warnings

Winter Weather Advisory
Issued: 3:09 PM CST Feb. 13, 2016 – National Weather Service

... Winter Weather Advisory remains in effect until 9 am CST
Sunday...

* timing... snow increasing late this afternoon and continuing
tonight with blowing snow developing. Snow will end Sunday
morning.

* Accumulations... 2 to 4 inches.

* Wind and visibility... southeast winds 15 to 30 mph will cause
visibilities to lower to less than a half mile at times in snow
and blowing snow. Brief whiteout conditions will be possible.

Precautionary/preparedness actions...

A Winter Weather Advisory for snow and blowing snow means that
visibilities will be limited due to a combination of falling and
blowing snow. Use caution when traveling... especially in open
areas.